sensor_id;sensor_type;location;lat;lon;timestamp;temperature;humidity
72772;SHT30;60894;42.544;1.516;2022-10-26T00:01:06;16.38;47.71
72772;SHT30;60894;42.544;1.516;2022-10-26T00:03:34;16.19;50.52
72772;SHT30;60894;42.544;1.516;2022-10-26T00:06:05;15.96;50.01
72772;SHT30;60894;42.544;1.516;2022-10-26T00:08:32;15.84;51.55
72772;SHT30;60894;42.544;1.516;2022-10-26T00:10:59;15.94;49.69
72772;SHT30;60894;42.544;1.516;2022-10-26T00:13:26;15.83;51.52
72772;SHT30;60894;42.544;1.516;2022-10-26T00:15:55;15.71;52.07
72772;SHT30;60894;42.544;1.516;2022-10-26T00:18:22;15.71;50.91
72772;SHT30;60894;42.544;1.516;2022-10-26T00:20:50;15.53;52.39
72772;SHT30;60894;42.544;1.516;2022-10-26T00:23:17;15.46;52.85
72772;SHT30;60894;42.544;1.516;2022-10-26T00:25:44;15.39;52.91
72772;SHT30;60894;42.544;1.516;2022-10-26T00:28:11;15.33;53.55
72772;SHT30;60894;42.544;1.516;2022-10-26T00:30:38;15.70;50.68
72772;SHT30;60894;42.544;1.516;2022-10-26T00:33:09;15.51;54.14
72772;SHT30;60894;42.544;1.516;2022-10-26T00:35:38;15.32;54.12
72772;SHT30;60894;42.544;1.516;2022-10-26T00:38:05;15.19;53.72
72772;SHT30;60894;42.544;1.516;2022-10-26T00:40:32;15.08;55.06
72772;SHT30;60894;42.544;1.516;2022-10-26T00:42:58;14.88;56.48
72772;SHT30;60894;42.544;1.516;2022-10-26T00:45:28;14.75;57.63
72772;SHT30;60894;42.544;1.516;2022-10-26T00:47:57;14.67;57.59
72772;SHT30;60894;42.544;1.516;2022-10-26T00:50:28;14.57;58.29
72772;SHT30;60894;42.544;1.516;2022-10-26T00:52:57;14.45;58.89
72772;SHT30;60894;42.544;1.516;2022-10-26T00:55:28;14.44;58.68
72772;SHT30;60894;42.544;1.516;2022-10-26T00:57:57;14.30;59.75
72772;SHT30;60894;42.544;1.516;2022-10-26T01:00:25;14.28;59.60
72772;SHT30;60894;42.544;1.516;2022-10-26T01:02:54;14.13;59.91
72772;SHT30;60894;42.544;1.516;2022-10-26T01:05:23;13.97;61.16
72772;SHT30;60894;42.544;1.516;2022-10-26T01:07:51;13.95;60.31
72772;SHT30;60894;42.544;1.516;2022-10-26T01:10:19;14.00;59.39
72772;SHT30;60894;42.544;1.516;2022-10-26T01:12:46;13.87;60.61
72772;SHT30;60894;42.544;1.516;2022-10-26T01:15:14;13.70;62.64
72772;SHT30;60894;42.544;1.516;2022-10-26T01:17:54;13.62;63.19
72772;SHT30;60894;42.544;1.516;2022-10-26T01:20:46;13.59;63.08
72772;SHT30;60894;42.544;1.516;2022-10-26T01:23:24;13.56;62.89
72772;SHT30;60894;42.544;1.516;2022-10-26T01:26:11;13.61;62.45
72772;SHT30;60894;42.544;1.516;2022-10-26T01:28:59;13.58;62.46
72772;SHT30;60894;42.544;1.516;2022-10-26T01:31:38;13.45;63.52
72772;SHT30;60894;42.544;1.516;2022-10-26T01:34:11;13.39;63.36
72772;SHT30;60894;42.544;1.516;2022-10-26T01:36:41;13.32;64.14
72772;SHT30;60894;42.544;1.516;2022-10-26T01:39:14;13.24;64.41
72772;SHT30;60894;42.544;1.516;2022-10-26T01:41:45;13.19;64.64
72772;SHT30;60894;42.544;1.516;2022-10-26T01:44:17;13.15;64.79
72772;SHT30;60894;42.544;1.516;2022-10-26T01:46:50;13.22;63.54
72772;SHT30;60894;42.544;1.516;2022-10-26T01:49:20;13.24;63.05
72772;SHT30;60894;42.544;1.516;2022-10-26T01:51:49;13.12;64.26
72772;SHT30;60894;42.544;1.516;2022-10-26T01:54:16;13.07;63.16
72772;SHT30;60894;42.544;1.516;2022-10-26T01:56:45;13.04;64.81
72772;SHT30;60894;42.544;1.516;2022-10-26T01:59:24;13.03;65.29
72772;SHT30;60894;42.544;1.516;2022-10-26T02:02:27;13.00;64.64
72772;SHT30;60894;42.544;1.516;2022-10-26T02:05:07;12.95;65.91
72772;SHT30;60894;42.544;1.516;2022-10-26T02:07:42;12.79;63.48
72772;SHT30;60894;42.544;1.516;2022-10-26T02:10:22;12.87;64.08
72772;SHT30;60894;42.544;1.516;2022-10-26T02:12:59;12.91;64.08
72772;SHT30;60894;42.544;1.516;2022-10-26T02:15:33;12.91;63.90
72772;SHT30;60894;42.544;1.516;2022-10-26T02:18:07;13.03;62.89
72772;SHT30;60894;42.544;1.516;2022-10-26T02:20:40;12.87;62.70
72772;SHT30;60894;42.544;1.516;2022-10-26T02:23:09;12.84;64.28
72772;SHT30;60894;42.544;1.516;2022-10-26T02:25:39;12.76;64.79
72772;SHT30;60894;42.544;1.516;2022-10-26T02:28:12;12.72;64.52
72772;SHT30;60894;42.544;1.516;2022-10-26T02:30:40;12.67;64.76
72772;SHT30;60894;42.544;1.516;2022-10-26T02:33:11;12.80;63.04
72772;SHT30;60894;42.544;1.516;2022-10-26T02:35:41;12.73;62.67
72772;SHT30;60894;42.544;1.516;2022-10-26T02:38:10;12.66;65.02
72772;SHT30;60894;42.544;1.516;2022-10-26T02:40:38;12.56;64.84
72772;SHT30;60894;42.544;1.516;2022-10-26T02:43:09;12.63;63.09
72772;SHT30;60894;42.544;1.516;2022-10-26T02:45:42;12.59;63.68
72772;SHT30;60894;42.544;1.516;2022-10-26T02:48:11;12.57;64.75
72772;SHT30;60894;42.544;1.516;2022-10-26T02:50:44;12.55;64.36
72772;SHT30;60894;42.544;1.516;2022-10-26T02:53:18;12.53;64.70
72772;SHT30;60894;42.544;1.516;2022-10-26T02:55:50;12.70;63.88
72772;SHT30;60894;42.544;1.516;2022-10-26T02:58:21;12.56;63.61
72772;SHT30;60894;42.544;1.516;2022-10-26T03:00:50;12.61;62.69
72772;SHT30;60894;42.544;1.516;2022-10-26T03:03:19;12.63;64.23
72772;SHT30;60894;42.544;1.516;2022-10-26T03:05:46;12.56;64.76
72772;SHT30;60894;42.544;1.516;2022-10-26T03:08:13;12.43;64.68
72772;SHT30;60894;42.544;1.516;2022-10-26T03:10:41;12.45;64.74
72772;SHT30;60894;42.544;1.516;2022-10-26T03:13:10;12.60;63.52
72772;SHT30;60894;42.544;1.516;2022-10-26T03:15:37;12.49;64.02
72772;SHT30;60894;42.544;1.516;2022-10-26T03:18:04;12.36;65.76
72772;SHT30;60894;42.544;1.516;2022-10-26T03:20:33;12.42;64.55
72772;SHT30;60894;42.544;1.516;2022-10-26T03:23:00;12.45;63.64
72772;SHT30;60894;42.544;1.516;2022-10-26T03:25:27;12.39;64.21
72772;SHT30;60894;42.544;1.516;2022-10-26T03:27:57;12.22;65.79
72772;SHT30;60894;42.544;1.516;2022-10-26T03:30:25;12.23;65.64
72772;SHT30;60894;42.544;1.516;2022-10-26T03:32:52;12.28;64.89
72772;SHT30;60894;42.544;1.516;2022-10-26T03:35:20;12.39;63.81
72772;SHT30;60894;42.544;1.516;2022-10-26T03:37:48;12.59;62.53
72772;SHT30;60894;42.544;1.516;2022-10-26T03:40:15;12.64;63.12
72772;SHT30;60894;42.544;1.516;2022-10-26T03:42:42;12.52;65.05
72772;SHT30;60894;42.544;1.516;2022-10-26T03:45:09;12.45;64.34
72772;SHT30;60894;42.544;1.516;2022-10-26T03:47:42;12.37;65.17
72772;SHT30;60894;42.544;1.516;2022-10-26T03:50:10;12.35;65.67
72772;SHT30;60894;42.544;1.516;2022-10-26T03:52:37;12.47;65.12
72772;SHT30;60894;42.544;1.516;2022-10-26T03:55:07;12.47;64.18
72772;SHT30;60894;42.544;1.516;2022-10-26T03:57:38;12.49;63.52
72772;SHT30;60894;42.544;1.516;2022-10-26T04:00:07;12.57;63.33
72772;SHT30;60894;42.544;1.516;2022-10-26T04:02:34;13.24;55.92
72772;SHT30;60894;42.544;1.516;2022-10-26T04:05:01;13.93;53.17
72772;SHT30;60894;42.544;1.516;2022-10-26T04:07:28;14.42;52.38
72772;SHT30;60894;42.544;1.516;2022-10-26T04:09:55;14.51;52.03
72772;SHT30;60894;42.544;1.516;2022-10-26T04:12:23;14.64;49.93
72772;SHT30;60894;42.544;1.516;2022-10-26T04:14:50;14.74;51.14
72772;SHT30;60894;42.544;1.516;2022-10-26T04:17:17;14.95;49.49
72772;SHT30;60894;42.544;1.516;2022-10-26T04:19:44;15.49;45.94
72772;SHT30;60894;42.544;1.516;2022-10-26T04:22:10;15.19;49.91
72772;SHT30;60894;42.544;1.516;2022-10-26T04:24:37;15.58;43.87
72772;SHT30;60894;42.544;1.516;2022-10-26T04:27:04;15.29;49.37
72772;SHT30;60894;42.544;1.516;2022-10-26T04:29:32;14.86;50.45
72772;SHT30;60894;42.544;1.516;2022-10-26T04:31:59;15.06;47.75
72772;SHT30;60894;42.544;1.516;2022-10-26T04:34:26;15.13;47.61
72772;SHT30;60894;42.544;1.516;2022-10-26T04:36:54;15.27;46.26
72772;SHT30;60894;42.544;1.516;2022-10-26T04:39:21;14.95;50.95
72772;SHT30;60894;42.544;1.516;2022-10-26T04:41:48;15.08;47.96
72772;SHT30;60894;42.544;1.516;2022-10-26T04:44:14;15.47;46.09
72772;SHT30;60894;42.544;1.516;2022-10-26T04:46:43;15.64;44.52
72772;SHT30;60894;42.544;1.516;2022-10-26T04:49:10;15.16;51.03
72772;SHT30;60894;42.544;1.516;2022-10-26T04:51:37;14.69;52.93
72772;SHT30;60894;42.544;1.516;2022-10-26T04:54:04;15.19;46.04
72772;SHT30;60894;42.544;1.516;2022-10-26T04:56:31;14.81;53.39
72772;SHT30;60894;42.544;1.516;2022-10-26T04:58:58;14.67;49.60
72772;SHT30;60894;42.544;1.516;2022-10-26T05:01:25;15.13;46.86
72772;SHT30;60894;42.544;1.516;2022-10-26T05:03:53;14.91;49.93
72772;SHT30;60894;42.544;1.516;2022-10-26T05:06:20;15.32;45.90
72772;SHT30;60894;42.544;1.516;2022-10-26T05:08:47;15.06;48.30
72772;SHT30;60894;42.544;1.516;2022-10-26T05:11:14;15.20;46.60
72772;SHT30;60894;42.544;1.516;2022-10-26T05:13:41;15.57;43.77
72772;SHT30;60894;42.544;1.516;2022-10-26T05:16:08;15.50;47.70
72772;SHT30;60894;42.544;1.516;2022-10-26T05:18:35;15.23;50.71
72772;SHT30;60894;42.544;1.516;2022-10-26T05:21:03;15.05;48.90
72772;SHT30;60894;42.544;1.516;2022-10-26T05:23:30;14.81;49.51
72772;SHT30;60894;42.544;1.516;2022-10-26T05:25:57;14.55;51.15
72772;SHT30;60894;42.544;1.516;2022-10-26T05:28:24;14.48;50.53
72772;SHT30;60894;42.544;1.516;2022-10-26T05:30:51;14.31;51.20
72772;SHT30;60894;42.544;1.516;2022-10-26T05:33:18;14.14;52.10
72772;SHT30;60894;42.544;1.516;2022-10-26T05:35:44;13.99;52.65
72772;SHT30;60894;42.544;1.516;2022-10-26T05:38:14;13.96;52.80
72772;SHT30;60894;42.544;1.516;2022-10-26T05:40:47;13.79;53.36
72772;SHT30;60894;42.544;1.516;2022-10-26T05:43:14;13.72;54.18
72772;SHT30;60894;42.544;1.516;2022-10-26T05:45:41;13.52;55.00
72772;SHT30;60894;42.544;1.516;2022-10-26T05:48:08;13.51;55.10
72772;SHT30;60894;42.544;1.516;2022-10-26T05:50:35;13.42;55.43
72772;SHT30;60894;42.544;1.516;2022-10-26T05:53:02;13.31;55.79
72772;SHT30;60894;42.544;1.516;2022-10-26T05:55:31;13.17;56.25
72772;SHT30;60894;42.544;1.516;2022-10-26T05:57:59;13.05;58.03
72772;SHT30;60894;42.544;1.516;2022-10-26T06:00:27;12.95;57.06
72772;SHT30;60894;42.544;1.516;2022-10-26T06:03:06;13.10;56.74
72772;SHT30;60894;42.544;1.516;2022-10-26T06:05:37;13.04;56.83
72772;SHT30;60894;42.544;1.516;2022-10-26T06:08:08;12.77;59.20
72772;SHT30;60894;42.544;1.516;2022-10-26T06:10:38;12.77;57.85
72772;SHT30;60894;42.544;1.516;2022-10-26T06:13:05;12.86;57.35
72772;SHT30;60894;42.544;1.516;2022-10-26T06:15:36;12.86;58.00
72772;SHT30;60894;42.544;1.516;2022-10-26T06:18:14;12.77;58.22
72772;SHT30;60894;42.544;1.516;2022-10-26T06:20:50;12.70;58.21
72772;SHT30;60894;42.544;1.516;2022-10-26T06:23:37;12.72;59.55
72772;SHT30;60894;42.544;1.516;2022-10-26T06:26:14;12.63;59.11
72772;SHT30;60894;42.544;1.516;2022-10-26T06:28:49;12.61;59.31
72772;SHT30;60894;42.544;1.516;2022-10-26T06:31:18;12.57;59.72
72772;SHT30;60894;42.544;1.516;2022-10-26T06:33:45;12.64;59.99
72772;SHT30;60894;42.544;1.516;2022-10-26T06:36:20;12.55;61.55
72772;SHT30;60894;42.544;1.516;2022-10-26T06:38:49;12.43;60.68
72772;SHT30;60894;42.544;1.516;2022-10-26T06:41:18;12.53;60.15
72772;SHT30;60894;42.544;1.516;2022-10-26T06:43:47;12.37;61.23
72772;SHT30;60894;42.544;1.516;2022-10-26T06:46:26;12.39;61.83
72772;SHT30;60894;42.544;1.516;2022-10-26T06:49:01;12.33;62.31
72772;SHT30;60894;42.544;1.516;2022-10-26T06:51:35;12.25;63.17
72772;SHT30;60894;42.544;1.516;2022-10-26T06:54:10;12.29;63.42
72772;SHT30;60894;42.544;1.516;2022-10-26T06:56:39;12.26;62.71
72772;SHT30;60894;42.544;1.516;2022-10-26T06:59:12;12.29;62.52
72772;SHT30;60894;42.544;1.516;2022-10-26T07:01:40;12.28;63.77
72772;SHT30;60894;42.544;1.516;2022-10-26T07:04:07;12.22;63.22
72772;SHT30;60894;42.544;1.516;2022-10-26T07:06:33;12.23;62.86
72772;SHT30;60894;42.544;1.516;2022-10-26T07:09:00;12.23;63.57
72772;SHT30;60894;42.544;1.516;2022-10-26T07:11:27;12.16;63.93
72772;SHT30;60894;42.544;1.516;2022-10-26T07:13:55;12.16;64.36
72772;SHT30;60894;42.544;1.516;2022-10-26T07:16:22;12.23;63.29
72772;SHT30;60894;42.544;1.516;2022-10-26T07:18:49;12.26;64.31
72772;SHT30;60894;42.544;1.516;2022-10-26T07:21:16;12.22;64.84
72772;SHT30;60894;42.544;1.516;2022-10-26T07:23:43;12.23;64.80
72772;SHT30;60894;42.544;1.516;2022-10-26T07:26:10;12.22;64.90
72772;SHT30;60894;42.544;1.516;2022-10-26T07:28:37;12.22;65.23
72772;SHT30;60894;42.544;1.516;2022-10-26T07:31:05;12.28;65.09
72772;SHT30;60894;42.544;1.516;2022-10-26T07:33:32;12.42;63.86
72772;SHT30;60894;42.544;1.516;2022-10-26T07:35:59;12.40;63.63
72772;SHT30;60894;42.544;1.516;2022-10-26T07:38:26;12.45;64.49
72772;SHT30;60894;42.544;1.516;2022-10-26T07:40:53;12.37;65.46
72772;SHT30;60894;42.544;1.516;2022-10-26T07:43:20;12.33;65.37
72772;SHT30;60894;42.544;1.516;2022-10-26T07:45:48;12.33;65.46
72772;SHT30;60894;42.544;1.516;2022-10-26T07:48:17;12.37;65.01
72772;SHT30;60894;42.544;1.516;2022-10-26T07:50:44;12.45;64.54
72772;SHT30;60894;42.544;1.516;2022-10-26T07:53:11;12.55;65.19
72772;SHT30;60894;42.544;1.516;2022-10-26T07:55:37;12.59;65.58
72772;SHT30;60894;42.544;1.516;2022-10-26T07:58:04;12.61;64.81
72772;SHT30;60894;42.544;1.516;2022-10-26T08:00:31;12.73;64.62
72772;SHT30;60894;42.544;1.516;2022-10-26T08:02:58;12.86;63.98
72772;SHT30;60894;42.544;1.516;2022-10-26T08:05:28;12.87;64.42
72772;SHT30;60894;42.544;1.516;2022-10-26T08:07:55;12.94;64.01
72772;SHT30;60894;42.544;1.516;2022-10-26T08:10:22;13.15;63.18
72772;SHT30;60894;42.544;1.516;2022-10-26T08:12:51;13.18;63.80
72772;SHT30;60894;42.544;1.516;2022-10-26T08:15:18;13.27;63.47
72772;SHT30;60894;42.544;1.516;2022-10-26T08:17:45;13.65;68.69
72772;SHT30;60894;42.544;1.516;2022-10-26T08:20:12;13.97;66.51
72772;SHT30;60894;42.544;1.516;2022-10-26T08:22:40;14.23;63.57
72772;SHT30;60894;42.544;1.516;2022-10-26T08:25:07;14.33;61.59
72772;SHT30;60894;42.544;1.516;2022-10-26T08:27:34;14.74;66.96
72772;SHT30;60894;42.544;1.516;2022-10-26T08:30:01;14.92;59.83
72772;SHT30;60894;42.544;1.516;2022-10-26T08:32:28;15.00;61.14
72772;SHT30;60894;42.544;1.516;2022-10-26T08:34:55;15.23;56.82
72772;SHT30;60894;42.544;1.516;2022-10-26T08:37:22;15.42;58.10
72772;SHT30;60894;42.544;1.516;2022-10-26T08:39:50;15.50;56.22
72772;SHT30;60894;42.544;1.516;2022-10-26T08:42:21;15.56;55.10
72772;SHT30;60894;42.544;1.516;2022-10-26T08:44:56;15.70;54.45
72772;SHT30;60894;42.544;1.516;2022-10-26T08:47:26;15.96;52.13
72772;SHT30;60894;42.544;1.516;2022-10-26T08:49:58;16.25;51.69
72772;SHT30;60894;42.544;1.516;2022-10-26T08:52:34;16.35;50.57
72772;SHT30;60894;42.544;1.516;2022-10-26T08:55:04;16.35;50.04
72772;SHT30;60894;42.544;1.516;2022-10-26T08:57:36;16.62;47.19
72772;SHT30;60894;42.544;1.516;2022-10-26T09:00:05;16.65;48.01
72772;SHT30;60894;42.544;1.516;2022-10-26T09:02:32;16.84;45.88
72772;SHT30;60894;42.544;1.516;2022-10-26T09:05:00;16.96;46.67
72772;SHT30;60894;42.544;1.516;2022-10-26T09:07:47;16.93;46.79
72772;SHT30;60894;42.544;1.516;2022-10-26T09:10:27;17.03;45.59
72772;SHT30;60894;42.544;1.516;2022-10-26T09:13:01;17.07;45.65
72772;SHT30;60894;42.544;1.516;2022-10-26T09:15:37;17.16;45.38
72772;SHT30;60894;42.544;1.516;2022-10-26T09:18:18;16.86;47.32
72772;SHT30;60894;42.544;1.516;2022-10-26T09:20:56;16.79;47.66
72772;SHT30;60894;42.544;1.516;2022-10-26T09:23:41;16.81;47.15
72772;SHT30;60894;42.544;1.516;2022-10-26T09:26:23;16.70;47.81
72772;SHT30;60894;42.544;1.516;2022-10-26T09:28:53;16.77;46.96
72772;SHT30;60894;42.544;1.516;2022-10-26T09:31:23;16.69;48.45
72772;SHT30;60894;42.544;1.516;2022-10-26T09:33:52;16.73;49.22
72772;SHT30;60894;42.544;1.516;2022-10-26T09:36:21;16.80;46.71
72772;SHT30;60894;42.544;1.516;2022-10-26T09:38:52;16.84;46.75
72772;SHT30;60894;42.544;1.516;2022-10-26T09:41:26;16.97;46.28
72772;SHT30;60894;42.544;1.516;2022-10-26T09:44:00;17.00;46.49
72772;SHT30;60894;42.544;1.516;2022-10-26T09:46:31;17.13;45.75
72772;SHT30;60894;42.544;1.516;2022-10-26T09:49:02;17.20;46.50
72772;SHT30;60894;42.544;1.516;2022-10-26T09:51:30;17.24;45.12
72772;SHT30;60894;42.544;1.516;2022-10-26T09:53:57;17.35;45.50
72772;SHT30;60894;42.544;1.516;2022-10-26T09:56:28;17.77;43.35
72772;SHT30;60894;42.544;1.516;2022-10-26T09:59:00;18.26;42.04
72772;SHT30;60894;42.544;1.516;2022-10-26T10:01:31;18.72;42.02
72772;SHT30;60894;42.544;1.516;2022-10-26T10:04:18;19.23;41.39
72772;SHT30;60894;42.544;1.516;2022-10-26T10:06:48;19.55;37.83
72772;SHT30;60894;42.544;1.516;2022-10-26T10:09:16;19.58;38.99
72772;SHT30;60894;42.544;1.516;2022-10-26T10:11:48;19.63;38.46
72772;SHT30;60894;42.544;1.516;2022-10-26T10:14:20;19.53;38.39
72772;SHT30;60894;42.544;1.516;2022-10-26T10:16:52;19.66;38.29
72772;SHT30;60894;42.544;1.516;2022-10-26T10:19:25;20.00;37.63
72772;SHT30;60894;42.544;1.516;2022-10-26T10:21:54;20.10;37.69
72772;SHT30;60894;42.544;1.516;2022-10-26T10:24:27;20.49;37.23
72772;SHT30;60894;42.544;1.516;2022-10-26T10:27:04;20.58;36.23
72772;SHT30;60894;42.544;1.516;2022-10-26T10:29:32;20.58;36.61
72772;SHT30;60894;42.544;1.516;2022-10-26T10:32:00;20.58;36.74
72772;SHT30;60894;42.544;1.516;2022-10-26T10:34:29;20.59;36.27
72772;SHT30;60894;42.544;1.516;2022-10-26T10:36:57;20.62;36.19
72772;SHT30;60894;42.544;1.516;2022-10-26T10:39:36;20.76;36.74
72772;SHT30;60894;42.544;1.516;2022-10-26T10:42:13;20.65;36.62
72772;SHT30;60894;42.544;1.516;2022-10-26T10:44:42;20.93;36.00
72772;SHT30;60894;42.544;1.516;2022-10-26T10:47:18;21.00;36.03
72772;SHT30;60894;42.544;1.516;2022-10-26T10:49:51;20.98;35.40
72772;SHT30;60894;42.544;1.516;2022-10-26T10:52:24;21.07;36.04
72772;SHT30;60894;42.544;1.516;2022-10-26T10:55:14;20.82;35.73
72772;SHT30;60894;42.544;1.516;2022-10-26T10:57:58;20.69;36.34
72772;SHT30;60894;42.544;1.516;2022-10-26T11:00:27;20.32;37.09
72772;SHT30;60894;42.544;1.516;2022-10-26T11:03:21;20.24;37.37
72772;SHT30;60894;42.544;1.516;2022-10-26T11:06:03;20.20;37.32
72772;SHT30;60894;42.544;1.516;2022-10-26T11:08:35;20.21;37.66
72772;SHT30;60894;42.544;1.516;2022-10-26T11:11:08;20.17;37.94
72772;SHT30;60894;42.544;1.516;2022-10-26T11:13:40;20.07;37.78
72772;SHT30;60894;42.544;1.516;2022-10-26T11:16:12;20.06;37.66
72772;SHT30;60894;42.544;1.516;2022-10-26T11:18:43;20.11;38.19
72772;SHT30;60894;42.544;1.516;2022-10-26T11:21:19;20.17;38.26
72772;SHT30;60894;42.544;1.516;2022-10-26T11:23:51;20.22;38.04
72772;SHT30;60894;42.544;1.516;2022-10-26T11:26:24;20.21;37.52
72772;SHT30;60894;42.544;1.516;2022-10-26T11:28:57;20.20;38.09
72772;SHT30;60894;42.544;1.516;2022-10-26T11:31:29;20.03;37.25
72772;SHT30;60894;42.544;1.516;2022-10-26T11:34:15;20.21;37.48
72772;SHT30;60894;42.544;1.516;2022-10-26T11:36:48;20.83;37.15
72772;SHT30;60894;42.544;1.516;2022-10-26T11:39:21;21.24;35.36
72772;SHT30;60894;42.544;1.516;2022-10-26T11:41:55;21.39;35.48
72772;SHT30;60894;42.544;1.516;2022-10-26T11:44:32;21.19;35.78
72772;SHT30;60894;42.544;1.516;2022-10-26T11:47:03;20.89;36.72
72772;SHT30;60894;42.544;1.516;2022-10-26T11:49:39;20.96;37.33
72772;SHT30;60894;42.544;1.516;2022-10-26T11:52:12;20.92;36.70
72772;SHT30;60894;42.544;1.516;2022-10-26T11:54:45;20.62;36.68
72772;SHT30;60894;42.544;1.516;2022-10-26T11:57:14;20.51;35.77
72772;SHT30;60894;42.544;1.516;2022-10-26T11:59:55;20.41;36.79
72772;SHT30;60894;42.544;1.516;2022-10-26T12:02:24;20.35;36.39
72772;SHT30;60894;42.544;1.516;2022-10-26T12:04:54;20.44;37.09
72772;SHT30;60894;42.544;1.516;2022-10-26T12:07:26;20.42;36.09
72772;SHT30;60894;42.544;1.516;2022-10-26T12:09:55;20.31;36.58
72772;SHT30;60894;42.544;1.516;2022-10-26T12:12:27;20.41;36.23
72772;SHT30;60894;42.544;1.516;2022-10-26T12:15:06;20.34;36.70
72772;SHT30;60894;42.544;1.516;2022-10-26T12:17:46;20.45;35.62
72772;SHT30;60894;42.544;1.516;2022-10-26T12:20:44;20.62;35.78
72772;SHT30;60894;42.544;1.516;2022-10-26T12:23:14;20.85;35.13
72772;SHT30;60894;42.544;1.516;2022-10-26T12:25:42;21.34;34.84
72772;SHT30;60894;42.544;1.516;2022-10-26T12:28:38;21.51;34.64
72772;SHT30;60894;42.544;1.516;2022-10-26T12:34:22;21.09;34.14
72772;SHT30;60894;42.544;1.516;2022-10-26T12:37:09;21.00;34.81
72772;SHT30;60894;42.544;1.516;2022-10-26T12:39:38;20.82;34.54
72772;SHT30;60894;42.544;1.516;2022-10-26T12:45:19;20.75;34.79
72772;SHT30;60894;42.544;1.516;2022-10-26T12:48:20;20.58;34.74
72772;SHT30;60894;42.544;1.516;2022-10-26T12:50:48;20.42;34.77
72772;SHT30;60894;42.544;1.516;2022-10-26T12:53:17;20.48;35.10
72772;SHT30;60894;42.544;1.516;2022-10-26T12:56:04;20.40;35.12
72772;SHT30;60894;42.544;1.516;2022-10-26T13:01:49;20.31;35.23
72772;SHT30;60894;42.544;1.516;2022-10-26T13:07:23;20.40;35.44
72772;SHT30;60894;42.544;1.516;2022-10-26T13:10:00;20.48;34.78
72772;SHT30;60894;42.544;1.516;2022-10-26T13:12:38;20.47;35.15
72772;SHT30;60894;42.544;1.516;2022-10-26T13:15:19;20.61;35.04
72772;SHT30;60894;42.544;1.516;2022-10-26T13:17:59;20.98;34.36
72772;SHT30;60894;42.544;1.516;2022-10-26T13:20:29;21.00;34.90
72772;SHT30;60894;42.544;1.516;2022-10-26T13:23:00;21.09;34.62
72772;SHT30;60894;42.544;1.516;2022-10-26T13:25:29;21.04;34.78
72772;SHT30;60894;42.544;1.516;2022-10-26T13:28:00;20.89;35.85
72772;SHT30;60894;42.544;1.516;2022-10-26T13:30:43;20.92;35.58
72772;SHT30;60894;42.544;1.516;2022-10-26T13:33:20;21.33;34.92
72772;SHT30;60894;42.544;1.516;2022-10-26T13:35:54;21.43;34.19
72772;SHT30;60894;42.544;1.516;2022-10-26T13:38:29;21.58;34.32
72772;SHT30;60894;42.544;1.516;2022-10-26T13:41:12;21.41;34.43
72772;SHT30;60894;42.544;1.516;2022-10-26T13:43:43;21.44;34.51
72772;SHT30;60894;42.544;1.516;2022-10-26T13:46:22;21.36;34.63
72772;SHT30;60894;42.544;1.516;2022-10-26T13:48:52;21.30;34.85
72772;SHT30;60894;42.544;1.516;2022-10-26T13:51:22;21.22;34.66
72772;SHT30;60894;42.544;1.516;2022-10-26T13:53:56;21.20;36.24
72772;SHT30;60894;42.544;1.516;2022-10-26T13:56:29;21.16;34.91
72772;SHT30;60894;42.544;1.516;2022-10-26T13:59:00;21.07;36.09
72772;SHT30;60894;42.544;1.516;2022-10-26T14:01:28;21.09;35.25
72772;SHT30;60894;42.544;1.516;2022-10-26T14:03:56;21.04;34.98
72772;SHT30;60894;42.544;1.516;2022-10-26T14:06:26;20.85;35.29
72772;SHT30;60894;42.544;1.516;2022-10-26T14:08:58;20.67;35.94
72772;SHT30;60894;42.544;1.516;2022-10-26T14:11:32;20.83;35.46
72772;SHT30;60894;42.544;1.516;2022-10-26T14:14:00;20.79;35.69
72772;SHT30;60894;42.544;1.516;2022-10-26T14:16:29;20.68;36.38
72772;SHT30;60894;42.544;1.516;2022-10-26T14:18:57;20.89;36.70
72772;SHT30;60894;42.544;1.516;2022-10-26T14:21:24;21.36;35.55
72772;SHT30;60894;42.544;1.516;2022-10-26T14:23:53;21.46;35.24
72772;SHT30;60894;42.544;1.516;2022-10-26T14:26:24;21.41;35.17
72772;SHT30;60894;42.544;1.516;2022-10-26T14:28:53;21.61;35.37
72772;SHT30;60894;42.544;1.516;2022-10-26T14:31:23;21.37;35.56
72772;SHT30;60894;42.544;1.516;2022-10-26T14:33:51;21.09;35.83
72772;SHT30;60894;42.544;1.516;2022-10-26T14:36:20;20.93;36.61
72772;SHT30;60894;42.544;1.516;2022-10-26T14:38:52;20.81;36.56
72772;SHT30;60894;42.544;1.516;2022-10-26T14:41:22;20.85;37.20
72772;SHT30;60894;42.544;1.516;2022-10-26T14:43:51;20.75;36.67
72772;SHT30;60894;42.544;1.516;2022-10-26T14:46:19;20.64;36.97
72772;SHT30;60894;42.544;1.516;2022-10-26T14:48:51;20.45;37.38
72772;SHT30;60894;42.544;1.516;2022-10-26T14:51:20;20.24;37.69
72772;SHT30;60894;42.544;1.516;2022-10-26T14:53:48;20.24;37.52
72772;SHT30;60894;42.544;1.516;2022-10-26T14:56:21;20.20;38.15
72772;SHT30;60894;42.544;1.516;2022-10-26T14:58:50;20.34;38.03
72772;SHT30;60894;42.544;1.516;2022-10-26T15:01:26;20.24;37.05
72772;SHT30;60894;42.544;1.516;2022-10-26T15:03:55;20.24;37.12
72772;SHT30;60894;42.544;1.516;2022-10-26T15:06:43;20.24;36.97
72772;SHT30;60894;42.544;1.516;2022-10-26T15:09:36;20.20;37.46
72772;SHT30;60894;42.544;1.516;2022-10-26T15:12:04;20.17;38.20
72772;SHT30;60894;42.544;1.516;2022-10-26T15:14:32;20.16;37.70
72772;SHT30;60894;42.544;1.516;2022-10-26T15:17:00;20.09;38.09
72772;SHT30;60894;42.544;1.516;2022-10-26T15:19:27;20.10;38.13
72772;SHT30;60894;42.544;1.516;2022-10-26T15:21:54;19.97;39.16
72772;SHT30;60894;42.544;1.516;2022-10-26T15:24:32;19.96;38.19
72772;SHT30;60894;42.544;1.516;2022-10-26T15:27:00;19.91;39.06
72772;SHT30;60894;42.544;1.516;2022-10-26T15:29:40;19.96;38.11
72772;SHT30;60894;42.544;1.516;2022-10-26T15:32:28;19.91;39.03
72772;SHT30;60894;42.544;1.516;2022-10-26T15:35:13;19.82;39.87
72772;SHT30;60894;42.544;1.516;2022-10-26T15:37:41;19.80;38.58
72772;SHT30;60894;42.544;1.516;2022-10-26T15:40:09;19.82;39.12
72772;SHT30;60894;42.544;1.516;2022-10-26T15:42:37;19.76;39.86
72772;SHT30;60894;42.544;1.516;2022-10-26T15:45:13;19.65;40.78
72772;SHT30;60894;42.544;1.516;2022-10-26T15:47:41;19.63;39.93
72772;SHT30;60894;42.544;1.516;2022-10-26T15:50:11;19.58;41.22
72772;SHT30;60894;42.544;1.516;2022-10-26T15:52:38;19.55;41.36
72772;SHT30;60894;42.544;1.516;2022-10-26T15:55:06;19.50;41.86
72772;SHT30;60894;42.544;1.516;2022-10-26T15:57:33;19.46;42.42
72772;SHT30;60894;42.544;1.516;2022-10-26T16:00:00;19.53;42.05
72772;SHT30;60894;42.544;1.516;2022-10-26T16:02:28;19.36;44.52
72772;SHT30;60894;42.544;1.516;2022-10-26T16:04:55;19.19;44.12
72772;SHT30;60894;42.544;1.516;2022-10-26T16:07:23;19.19;44.36